No.10 Hasshomaru — JD2992 — position and weather

sailwx.info

Track history (hours):
 
Tides and Currents Weather Stations Pressure Air Temp Water Temp Dewpoint Dewpoint Depression Visibility Wind Speed Wind Dir Waves Ship Positions

No.10 Hasshomaru

Last reported at 2017-May-31 20:56 UTC. Time now 2017-Jul-23 08:44 UTC.
Position N 35°04' E 140°24'.
Warning: this ship's position is 52 days out of date.

Length 105 m; draft 4.3 m.

Type: Tanker. MMSI: 431001112.

Date/timePositionNaut miles runAvg speedWind from/ knotsBaromVisibWave heightAir tempDewpointWater temp
2017-May-31 20:56N 35°04' E 140°24'1815.1
2017-May-31 19:43N 34°55' E 140°04'314.4
2017-May-31 19:30N 34°54' E 140°01'714.3
2017-May-31 19:00N 34°50' E 139°53'813.9
2017-May-31 18:25N 34°46' E 139°45'  
2017-May-28 12:30N 34°57' E 140°09'815.2
2017-May-28 11:59N 34°54' E 140°01'713.6
2017-May-28 11:27N 34°52' E 139°52'612.7
2017-May-28 11:00N 34°55' E 139°46'613.0
2017-May-28 10:30N 35°01' E 139°44'714.0
2017-May-28 10:00N 35°08' E 139°45'713.4
2017-May-28 09:30N 35°14' E 139°46'510.6
2017-May-28 09:01N 35°19' E 139°43'510.7
2017-May-28 08:30N 35°24' E 139°43'612.4
2017-May-28 08:00N 35°29' E 139°48'2 3.9
2017-May-28 07:28N 35°31' E 139°46'0 0.0
2017-May-28 07:00N 35°31' E 139°46'0 0.0
2017-May-28 06:31N 35°31' E 139°46'0 0.0
2017-May-28 06:00N 35°31' E 139°46'0 0.0
2017-May-28 05:30N 35°31' E 139°46'0 0.0
2017-May-28 05:01N 35°31' E 139°46'0 0.0
2017-May-28 04:30N 35°31' E 139°46'0 0.0
2017-May-28 04:01N 35°31' E 139°46'0 0.0
2017-May-28 03:27N 35°31' E 139°46'0 0.9
2017-May-28 03:01N 35°31' E 139°46'3 6.9
2017-May-28 02:30N 35°29' E 139°42'4 7.5
2017-May-28 02:00N 35°26' E 139°44'2 4.4
2017-May-28 01:30N 35°23' E 139°44'0 0.0
2017-May-28 01:00N 35°23' E 139°44'0 0.1
2017-May-28 00:30N 35°23' E 139°44'0 0.0
2017-May-28 00:00N 35°23' E 139°44'0 0.0
2017-May-27 23:30N 35°23' E 139°44'1 1.3
2017-May-27 23:00N 35°23' E 139°44'5 9.3
2017-May-27 22:30N 35°18' E 139°44'5 9.8
2017-May-27 22:00N 35°14' E 139°47'612.8
2017-May-27 21:30N 35°08' E 139°46'713.7
2017-May-27 21:01N 35°01' E 139°44'713.1
2017-May-27 20:29N 34°54' E 139°47'  
Track history (hours):
 
Tides and Currents Weather Stations Pressure Air Temp Water Temp Dewpoint Dewpoint Depression Visibility Wind Speed Wind Dir Waves Ship Positions

No.10 Hasshomaru

Last reported at 2017-May-31 20:56 UTC. Time now 2017-Jul-23 08:44 UTC.
Position N 35°04' E 140°24'.
Warning: this ship's position is 52 days out of date.

Length 105 m; draft 4.3 m.

Type: Tanker. MMSI: 431001112.

Date/timePositionNaut miles runAvg speedWind from/ knotsBaromVisibWave heightAir tempDewpointWater temp
2017-May-31 20:56N 35°04' E 140°24'1815.1
2017-May-31 19:43N 34°55' E 140°04'314.4
2017-May-31 19:30N 34°54' E 140°01'714.3
2017-May-31 19:00N 34°50' E 139°53'813.9
2017-May-31 18:25N 34°46' E 139°45'  
2017-May-28 12:30N 34°57' E 140°09'815.2
2017-May-28 11:59N 34°54' E 140°01'713.6
2017-May-28 11:27N 34°52' E 139°52'612.7
2017-May-28 11:00N 34°55' E 139°46'613.0
2017-May-28 10:30N 35°01' E 139°44'714.0
2017-May-28 10:00N 35°08' E 139°45'713.4
2017-May-28 09:30N 35°14' E 139°46'510.6
2017-May-28 09:01N 35°19' E 139°43'510.7
2017-May-28 08:30N 35°24' E 139°43'612.4
2017-May-28 08:00N 35°29' E 139°48'2 3.9
2017-May-28 07:28N 35°31' E 139°46'0 0.0
2017-May-28 07:00N 35°31' E 139°46'0 0.0
2017-May-28 06:31N 35°31' E 139°46'0 0.0
2017-May-28 06:00N 35°31' E 139°46'0 0.0
2017-May-28 05:30N 35°31' E 139°46'0 0.0
2017-May-28 05:01N 35°31' E 139°46'0 0.0
2017-May-28 04:30N 35°31' E 139°46'0 0.0
2017-May-28 04:01N 35°31' E 139°46'0 0.0
2017-May-28 03:27N 35°31' E 139°46'0 0.9
2017-May-28 03:01N 35°31' E 139°46'3 6.9
2017-May-28 02:30N 35°29' E 139°42'4 7.5
2017-May-28 02:00N 35°26' E 139°44'2 4.4
2017-May-28 01:30N 35°23' E 139°44'0 0.0
2017-May-28 01:00N 35°23' E 139°44'0 0.1
2017-May-28 00:30N 35°23' E 139°44'0 0.0
2017-May-28 00:00N 35°23' E 139°44'0 0.0
2017-May-27 23:30N 35°23' E 139°44'1 1.3
2017-May-27 23:00N 35°23' E 139°44'5 9.3
2017-May-27 22:30N 35°18' E 139°44'5 9.8
2017-May-27 22:00N 35°14' E 139°47'612.8
2017-May-27 21:30N 35°08' E 139°46'713.7
2017-May-27 21:01N 35°01' E 139°44'713.1
2017-May-27 20:29N 34°54' E 139°47'  

Dump ship's entire track history